Topeka, KS (66611)

03:45 AM CDT die 20o August, anno 2014 (GMT -0500)
South Central Topeka | Change Station
CLOSE
Current Station
Personal Weather Stations
Location: Topeka, KS
Elevation: 946 ft
Nearby Weather Stations

Elev 946 ft 39.03 °N, 95.71 °W | Updated 6 seconds ago

Clear
Serena
76.4 °F
Feels Like 78 °F
N
0.0
Ventus Variabilis Ventus from Auster
Gusts 0.0 mph

Hodie
High -- | Low -- °F
--% Chance of Precip.
Yesterday
High -- | Low -- °F
Precip. -- in
6:40 AM 8:10 PM
Waning Crescent, 23% visible
Pressio 29.80 in
Visibilitas 10.0 milia passuum
Clouds Serena
Index Caloris 78 °F
Frigus in quo Ros apparet 69 °F
Umor 78%
Rainfall 0.00 in
Snow Depth Not available.
UV 0 out of 12
Pollen 8.50 out of 12
Air Quality Not available.
Flu Activity Not available.
METAR KFOE 200753Z AUTO 19007KT 10SM CLR 24/19 A2983 RMK AO2 SLP089 T02440194

More Conditions Fewer Conditions

Pressio 29.80 in
Visibilitas 10.0 milia passuum
Clouds Serena
Index Caloris 78 °F
Frigus in quo Ros apparet 69 °F
Umor 78%
Rainfall 0.00 in
Snow Depth Not available.
UV 0 out of 12
Pollen 8.50 out of 12
Air Quality Not available.
Flu Activity Not available.
METAR KFOE 200753Z AUTO 19007KT 10SM CLR 24/19 A2983 RMK AO2 SLP089 T02440194

More Conditions Fewer Conditions

10-Day Weather Forecast

Almanac

Astronomy

Aug. 20, 2014 Rise Set
Actual Time 6:40 AM CDT 8:10 PM CDT
Civil Twilight 6:12 AM CDT 8:38 PM CDT
Nautical Twilight 5:38 AM CDT 9:12 PM CDT
Astronomical Twilight 5:02 AM CDT 9:48 PM CDT
Moon 2:22 AM CDT 4:55 PM CDT
Length Of Visible Light 14h 26m
Length of Day
13h 30m
Tomorrow will be 2m 19s shorter.
Waning Crescent, 23% of the Moon is Illuminated
Hodie
Waning Crescent
Aug 25
New
Sep 2
First Quarter
Sep 8
Full
Sep 15
Last Quarter

Today's Extremes

State Highs State Lows

Community

WunderPhotos

Upload Photos

1,745,600 photos uploaded!

Nearby

Snow Depth

Station Depth Elevation
No new snow has been reported.

Earthquake Activity

City Distance Mag. Time & Date
No recent earthquake activity has been reported nearby.
Minimum magnitude displayed is 2.5.

Coastal Water Temperatures

Locus Calor
No Stations Reporting

Nearby Weather Stations